sensor_id;sensor_type;location;lat;lon;timestamp;P1;durP1;ratioP1;P2;durP2;ratioP2
62863;SDS011;48954;59.950;11.014;2023-05-15T00:00:09;8.40;;;7.00;;
62863;SDS011;48954;59.950;11.014;2023-05-15T00:02:56;11.30;;;8.70;;
62863;SDS011;48954;59.950;11.014;2023-05-15T00:05:22;14.00;;;9.20;;
62863;SDS011;48954;59.950;11.014;2023-05-15T00:07:49;11.10;;;8.50;;
62863;SDS011;48954;59.950;11.014;2023-05-15T00:10:15;10.30;;;8.10;;
62863;SDS011;48954;59.950;11.014;2023-05-15T00:12:42;8.30;;;7.20;;
62863;SDS011;48954;59.950;11.014;2023-05-15T00:15:08;9.30;;;7.30;;
62863;SDS011;48954;59.950;11.014;2023-05-15T00:17:35;9.20;;;7.20;;
62863;SDS011;48954;59.950;11.014;2023-05-15T00:20:02;8.60;;;6.90;;
62863;SDS011;48954;59.950;11.014;2023-05-15T00:22:29;8.60;;;7.00;;
62863;SDS011;48954;59.950;11.014;2023-05-15T00:24:55;10.20;;;8.20;;
62863;SDS011;48954;59.950;11.014;2023-05-15T00:27:22;10.70;;;8.90;;
62863;SDS011;48954;59.950;11.014;2023-05-15T00:29:49;9.20;;;8.20;;
62863;SDS011;48954;59.950;11.014;2023-05-15T00:32:15;17.80;;;8.30;;
62863;SDS011;48954;59.950;11.014;2023-05-15T00:34:42;21.60;;;9.80;;
62863;SDS011;48954;59.950;11.014;2023-05-15T00:37:09;18.90;;;9.00;;
62863;SDS011;48954;59.950;11.014;2023-05-15T00:39:35;11.20;;;6.30;;
62863;SDS011;48954;59.950;11.014;2023-05-15T00:42:02;50.20;;;11.30;;
62863;SDS011;48954;59.950;11.014;2023-05-15T00:44:30;10.40;;;7.50;;
62863;SDS011;48954;59.950;11.014;2023-05-15T00:46:58;21.30;;;7.20;;
62863;SDS011;48954;59.950;11.014;2023-05-15T00:49:26;32.10;;;8.70;;
62863;SDS011;48954;59.950;11.014;2023-05-15T00:51:55;24.10;;;7.10;;
62863;SDS011;48954;59.950;11.014;2023-05-15T00:54:23;11.30;;;6.10;;
62863;SDS011;48954;59.950;11.014;2023-05-15T00:56:49;10.80;;;6.30;;
62863;SDS011;48954;59.950;11.014;2023-05-15T00:59:17;10.70;;;6.50;;
62863;SDS011;48954;59.950;11.014;2023-05-15T01:01:46;8.60;;;6.50;;
62863;SDS011;48954;59.950;11.014;2023-05-15T01:04:12;7.90;;;6.30;;
62863;SDS011;48954;59.950;11.014;2023-05-15T01:06:39;8.10;;;6.60;;
62863;SDS011;48954;59.950;11.014;2023-05-15T01:09:05;8.10;;;6.50;;
62863;SDS011;48954;59.950;11.014;2023-05-15T01:11:33;10.00;;;7.60;;
62863;SDS011;48954;59.950;11.014;2023-05-15T01:14:03;11.40;;;8.70;;
62863;SDS011;48954;59.950;11.014;2023-05-15T01:16:31;9.70;;;7.70;;
62863;SDS011;48954;59.950;11.014;2023-05-15T01:19:04;10.80;;;8.00;;
62863;SDS011;48954;59.950;11.014;2023-05-15T01:32:15;7.70;;;6.00;;
62863;SDS011;48954;59.950;11.014;2023-05-15T01:40:37;8.60;;;6.30;;
62863;SDS011;48954;59.950;11.014;2023-05-15T01:43:07;11.20;;;8.80;;
62863;SDS011;48954;59.950;11.014;2023-05-15T01:45:34;9.90;;;7.80;;
62863;SDS011;48954;59.950;11.014;2023-05-15T01:48:04;11.60;;;8.60;;
62863;SDS011;48954;59.950;11.014;2023-05-15T01:50:33;10.40;;;8.50;;
62863;SDS011;48954;59.950;11.014;2023-05-15T01:53:03;10.70;;;8.20;;
62863;SDS011;48954;59.950;11.014;2023-05-15T01:55:32;10.10;;;7.90;;
62863;SDS011;48954;59.950;11.014;2023-05-15T01:58:00;8.90;;;7.20;;
62863;SDS011;48954;59.950;11.014;2023-05-15T02:00:28;8.40;;;6.70;;
62863;SDS011;48954;59.950;11.014;2023-05-15T02:02:55;9.00;;;6.80;;
62863;SDS011;48954;59.950;11.014;2023-05-15T02:05:22;9.80;;;7.50;;
62863;SDS011;48954;59.950;11.014;2023-05-15T02:07:50;11.60;;;7.60;;
62863;SDS011;48954;59.950;11.014;2023-05-15T02:10:17;9.30;;;7.80;;
62863;SDS011;48954;59.950;11.014;2023-05-15T02:12:45;9.60;;;8.00;;
62863;SDS011;48954;59.950;11.014;2023-05-15T02:15:12;10.90;;;9.20;;
62863;SDS011;48954;59.950;11.014;2023-05-15T02:17:39;9.60;;;7.70;;
62863;SDS011;48954;59.950;11.014;2023-05-15T02:20:06;8.80;;;7.00;;
62863;SDS011;48954;59.950;11.014;2023-05-15T02:22:33;9.00;;;6.90;;
62863;SDS011;48954;59.950;11.014;2023-05-15T02:25:00;9.20;;;7.50;;
62863;SDS011;48954;59.950;11.014;2023-05-15T02:27:27;9.30;;;7.00;;
62863;SDS011;48954;59.950;11.014;2023-05-15T02:33:04;8.10;;;6.70;;
62863;SDS011;48954;59.950;11.014;2023-05-15T02:35:47;9.00;;;7.40;;
62863;SDS011;48954;59.950;11.014;2023-05-15T02:38:19;8.80;;;6.80;;
62863;SDS011;48954;59.950;11.014;2023-05-15T02:40:48;9.30;;;7.00;;
62863;SDS011;48954;59.950;11.014;2023-05-15T02:43:16;9.60;;;8.00;;
62863;SDS011;48954;59.950;11.014;2023-05-15T02:45:44;10.30;;;8.50;;
62863;SDS011;48954;59.950;11.014;2023-05-15T02:48:12;8.90;;;7.40;;
62863;SDS011;48954;59.950;11.014;2023-05-15T02:50:40;8.80;;;6.90;;
62863;SDS011;48954;59.950;11.014;2023-05-15T02:53:07;8.40;;;6.70;;
62863;SDS011;48954;59.950;11.014;2023-05-15T02:55:33;8.40;;;7.40;;
62863;SDS011;48954;59.950;11.014;2023-05-15T02:58:01;8.70;;;7.00;;
62863;SDS011;48954;59.950;11.014;2023-05-15T03:00:28;9.60;;;7.80;;
62863;SDS011;48954;59.950;11.014;2023-05-15T03:02:55;7.90;;;6.60;;
62863;SDS011;48954;59.950;11.014;2023-05-15T03:05:21;7.90;;;6.60;;
62863;SDS011;48954;59.950;11.014;2023-05-15T03:07:48;8.30;;;6.80;;
62863;SDS011;48954;59.950;11.014;2023-05-15T03:10:14;7.60;;;6.40;;
62863;SDS011;48954;59.950;11.014;2023-05-15T03:12:41;9.20;;;7.40;;
62863;SDS011;48954;59.950;11.014;2023-05-15T03:15:07;8.40;;;6.70;;
62863;SDS011;48954;59.950;11.014;2023-05-15T03:17:34;12.40;;;8.00;;
62863;SDS011;48954;59.950;11.014;2023-05-15T03:20:00;9.30;;;7.70;;
62863;SDS011;48954;59.950;11.014;2023-05-15T03:22:27;9.50;;;7.80;;
62863;SDS011;48954;59.950;11.014;2023-05-15T03:24:54;9.30;;;7.20;;
62863;SDS011;48954;59.950;11.014;2023-05-15T03:27:20;9.30;;;7.40;;
62863;SDS011;48954;59.950;11.014;2023-05-15T03:29:47;9.40;;;7.70;;
62863;SDS011;48954;59.950;11.014;2023-05-15T03:32:13;11.40;;;9.10;;
62863;SDS011;48954;59.950;11.014;2023-05-15T03:34:40;11.00;;;8.90;;
62863;SDS011;48954;59.950;11.014;2023-05-15T03:37:06;10.30;;;8.70;;
62863;SDS011;48954;59.950;11.014;2023-05-15T03:39:33;9.20;;;7.20;;
62863;SDS011;48954;59.950;11.014;2023-05-15T03:41:59;9.10;;;7.80;;
62863;SDS011;48954;59.950;11.014;2023-05-15T03:44:26;9.70;;;7.90;;
62863;SDS011;48954;59.950;11.014;2023-05-15T03:46:52;8.80;;;7.60;;
62863;SDS011;48954;59.950;11.014;2023-05-15T03:49:19;9.60;;;7.20;;
62863;SDS011;48954;59.950;11.014;2023-05-15T03:51:45;10.90;;;8.80;;
62863;SDS011;48954;59.950;11.014;2023-05-15T03:54:12;10.20;;;8.30;;
62863;SDS011;48954;59.950;11.014;2023-05-15T03:56:39;10.40;;;8.10;;
62863;SDS011;48954;59.950;11.014;2023-05-15T03:59:05;8.70;;;7.00;;
62863;SDS011;48954;59.950;11.014;2023-05-15T04:01:32;10.00;;;7.50;;
62863;SDS011;48954;59.950;11.014;2023-05-15T04:03:58;11.60;;;7.30;;
62863;SDS011;48954;59.950;11.014;2023-05-15T04:06:24;8.70;;;7.60;;
62863;SDS011;48954;59.950;11.014;2023-05-15T04:08:51;9.50;;;7.50;;
62863;SDS011;48954;59.950;11.014;2023-05-15T04:11:17;9.30;;;7.00;;
62863;SDS011;48954;59.950;11.014;2023-05-15T04:13:44;11.90;;;8.80;;
62863;SDS011;48954;59.950;11.014;2023-05-15T04:16:10;8.60;;;7.20;;
62863;SDS011;48954;59.950;11.014;2023-05-15T04:18:37;8.30;;;6.80;;
62863;SDS011;48954;59.950;11.014;2023-05-15T04:21:03;8.80;;;7.40;;
62863;SDS011;48954;59.950;11.014;2023-05-15T04:23:30;9.00;;;7.10;;
62863;SDS011;48954;59.950;11.014;2023-05-15T04:25:56;8.50;;;6.80;;
62863;SDS011;48954;59.950;11.014;2023-05-15T04:28:23;11.10;;;7.80;;
62863;SDS011;48954;59.950;11.014;2023-05-15T04:30:49;9.10;;;7.70;;
62863;SDS011;48954;59.950;11.014;2023-05-15T04:33:16;9.60;;;7.20;;
62863;SDS011;48954;59.950;11.014;2023-05-15T04:35:42;10.10;;;8.40;;
62863;SDS011;48954;59.950;11.014;2023-05-15T04:38:09;8.80;;;7.50;;
62863;SDS011;48954;59.950;11.014;2023-05-15T04:40:35;9.70;;;7.80;;
62863;SDS011;48954;59.950;11.014;2023-05-15T04:43:02;10.10;;;7.90;;
62863;SDS011;48954;59.950;11.014;2023-05-15T04:45:28;11.50;;;8.80;;
62863;SDS011;48954;59.950;11.014;2023-05-15T04:47:55;7.90;;;6.50;;
62863;SDS011;48954;59.950;11.014;2023-05-15T04:50:21;9.80;;;8.10;;
62863;SDS011;48954;59.950;11.014;2023-05-15T04:52:47;8.40;;;7.30;;
62863;SDS011;48954;59.950;11.014;2023-05-15T04:55:14;8.50;;;6.70;;
62863;SDS011;48954;59.950;11.014;2023-05-15T04:57:41;9.20;;;7.30;;
62863;SDS011;48954;59.950;11.014;2023-05-15T05:00:07;9.30;;;8.10;;
62863;SDS011;48954;59.950;11.014;2023-05-15T05:02:34;10.00;;;7.80;;
62863;SDS011;48954;59.950;11.014;2023-05-15T05:05:01;10.80;;;7.80;;
62863;SDS011;48954;59.950;11.014;2023-05-15T05:07:28;9.80;;;7.80;;
62863;SDS011;48954;59.950;11.014;2023-05-15T05:09:55;9.20;;;7.70;;
62863;SDS011;48954;59.950;11.014;2023-05-15T05:12:21;9.20;;;7.50;;
62863;SDS011;48954;59.950;11.014;2023-05-15T05:14:47;11.00;;;7.90;;
62863;SDS011;48954;59.950;11.014;2023-05-15T05:17:14;10.20;;;8.60;;
62863;SDS011;48954;59.950;11.014;2023-05-15T05:19:40;9.90;;;7.60;;
62863;SDS011;48954;59.950;11.014;2023-05-15T05:22:07;9.90;;;8.10;;
62863;SDS011;48954;59.950;11.014;2023-05-15T05:24:34;12.70;;;9.00;;
62863;SDS011;48954;59.950;11.014;2023-05-15T05:27:00;11.00;;;7.70;;
62863;SDS011;48954;59.950;11.014;2023-05-15T05:29:27;11.50;;;8.00;;
62863;SDS011;48954;59.950;11.014;2023-05-15T05:31:55;11.00;;;8.30;;
62863;SDS011;48954;59.950;11.014;2023-05-15T05:34:22;10.30;;;8.70;;
62863;SDS011;48954;59.950;11.014;2023-05-15T05:36:49;9.50;;;8.50;;
62863;SDS011;48954;59.950;11.014;2023-05-15T05:39:16;11.10;;;8.70;;
62863;SDS011;48954;59.950;11.014;2023-05-15T05:41:42;9.70;;;8.50;;
62863;SDS011;48954;59.950;11.014;2023-05-15T05:44:09;10.90;;;9.60;;
62863;SDS011;48954;59.950;11.014;2023-05-15T05:46:36;10.60;;;8.60;;
62863;SDS011;48954;59.950;11.014;2023-05-15T05:49:03;9.30;;;7.60;;
62863;SDS011;48954;59.950;11.014;2023-05-15T05:51:29;12.10;;;8.80;;
62863;SDS011;48954;59.950;11.014;2023-05-15T05:53:56;10.00;;;8.90;;
62863;SDS011;48954;59.950;11.014;2023-05-15T05:56:24;9.10;;;7.80;;
62863;SDS011;48954;59.950;11.014;2023-05-15T05:58:50;9.10;;;7.60;;
62863;SDS011;48954;59.950;11.014;2023-05-15T06:01:17;10.20;;;8.20;;
62863;SDS011;48954;59.950;11.014;2023-05-15T06:03:43;9.20;;;7.50;;
62863;SDS011;48954;59.950;11.014;2023-05-15T06:06:15;8.30;;;7.40;;
62863;SDS011;48954;59.950;11.014;2023-05-15T06:08:41;10.90;;;8.50;;
62863;SDS011;48954;59.950;11.014;2023-05-15T06:11:08;8.90;;;7.50;;
62863;SDS011;48954;59.950;11.014;2023-05-15T06:13:35;10.10;;;7.80;;
62863;SDS011;48954;59.950;11.014;2023-05-15T06:16:01;8.80;;;7.90;;
62863;SDS011;48954;59.950;11.014;2023-05-15T06:18:28;10.60;;;8.70;;
62863;SDS011;48954;59.950;11.014;2023-05-15T06:20:54;9.90;;;7.90;;
62863;SDS011;48954;59.950;11.014;2023-05-15T06:23:21;7.80;;;7.00;;
62863;SDS011;48954;59.950;11.014;2023-05-15T06:25:47;11.30;;;9.40;;
62863;SDS011;48954;59.950;11.014;2023-05-15T06:28:14;8.60;;;7.70;;
62863;SDS011;48954;59.950;11.014;2023-05-15T06:30:40;9.80;;;8.40;;
62863;SDS011;48954;59.950;11.014;2023-05-15T06:33:07;11.00;;;8.00;;
62863;SDS011;48954;59.950;11.014;2023-05-15T06:35:34;9.90;;;7.80;;
62863;SDS011;48954;59.950;11.014;2023-05-15T06:38:01;9.10;;;7.50;;
62863;SDS011;48954;59.950;11.014;2023-05-15T06:40:27;9.50;;;7.60;;
62863;SDS011;48954;59.950;11.014;2023-05-15T06:42:56;9.90;;;8.20;;
62863;SDS011;48954;59.950;11.014;2023-05-15T06:45:23;10.20;;;8.10;;
62863;SDS011;48954;59.950;11.014;2023-05-15T06:47:50;8.80;;;7.80;;
62863;SDS011;48954;59.950;11.014;2023-05-15T06:50:16;9.00;;;8.00;;
62863;SDS011;48954;59.950;11.014;2023-05-15T06:52:42;9.90;;;8.40;;
62863;SDS011;48954;59.950;11.014;2023-05-15T06:55:09;9.20;;;7.80;;
62863;SDS011;48954;59.950;11.014;2023-05-15T06:57:36;8.90;;;7.40;;
62863;SDS011;48954;59.950;11.014;2023-05-15T07:00:02;9.60;;;8.50;;
62863;SDS011;48954;59.950;11.014;2023-05-15T07:02:29;9.90;;;8.50;;
62863;SDS011;48954;59.950;11.014;2023-05-15T07:04:56;10.60;;;7.40;;
62863;SDS011;48954;59.950;11.014;2023-05-15T07:07:22;9.50;;;8.50;;
62863;SDS011;48954;59.950;11.014;2023-05-15T07:09:50;9.70;;;8.40;;
62863;SDS011;48954;59.950;11.014;2023-05-15T07:12:16;10.20;;;8.60;;
62863;SDS011;48954;59.950;11.014;2023-05-15T07:14:43;9.10;;;7.70;;
62863;SDS011;48954;59.950;11.014;2023-05-15T07:17:15;9.70;;;8.40;;
62863;SDS011;48954;59.950;11.014;2023-05-15T07:19:42;8.90;;;8.00;;
62863;SDS011;48954;59.950;11.014;2023-05-15T07:22:08;9.90;;;8.90;;
62863;SDS011;48954;59.950;11.014;2023-05-15T07:24:35;10.40;;;7.80;;
62863;SDS011;48954;59.950;11.014;2023-05-15T07:27:02;11.20;;;8.60;;
62863;SDS011;48954;59.950;11.014;2023-05-15T07:29:31;10.70;;;9.50;;
62863;SDS011;48954;59.950;11.014;2023-05-15T07:31:57;8.80;;;7.80;;
62863;SDS011;48954;59.950;11.014;2023-05-15T07:34:24;9.10;;;8.00;;
62863;SDS011;48954;59.950;11.014;2023-05-15T07:36:50;10.10;;;8.10;;
62863;SDS011;48954;59.950;11.014;2023-05-15T07:39:17;11.50;;;8.70;;
62863;SDS011;48954;59.950;11.014;2023-05-15T07:41:43;10.70;;;8.70;;
62863;SDS011;48954;59.950;11.014;2023-05-15T07:44:10;11.40;;;7.90;;
62863;SDS011;48954;59.950;11.014;2023-05-15T07:46:36;9.20;;;7.90;;
62863;SDS011;48954;59.950;11.014;2023-05-15T07:49:03;8.30;;;7.50;;
62863;SDS011;48954;59.950;11.014;2023-05-15T07:51:29;9.10;;;7.10;;
62863;SDS011;48954;59.950;11.014;2023-05-15T07:53:56;8.70;;;7.80;;
62863;SDS011;48954;59.950;11.014;2023-05-15T07:56:24;12.60;;;8.40;;
62863;SDS011;48954;59.950;11.014;2023-05-15T07:58:50;8.60;;;7.70;;
62863;SDS011;48954;59.950;11.014;2023-05-15T08:01:17;11.60;;;7.50;;
62863;SDS011;48954;59.950;11.014;2023-05-15T08:03:43;8.50;;;7.60;;
62863;SDS011;48954;59.950;11.014;2023-05-15T08:06:10;8.40;;;7.40;;
62863;SDS011;48954;59.950;11.014;2023-05-15T08:08:36;7.70;;;6.80;;
62863;SDS011;48954;59.950;11.014;2023-05-15T08:11:03;10.00;;;8.50;;
62863;SDS011;48954;59.950;11.014;2023-05-15T08:13:29;8.30;;;7.40;;
62863;SDS011;48954;59.950;11.014;2023-05-15T08:15:56;8.70;;;7.60;;
62863;SDS011;48954;59.950;11.014;2023-05-15T08:18:22;11.90;;;8.20;;
62863;SDS011;48954;59.950;11.014;2023-05-15T08:20:49;8.80;;;7.60;;
62863;SDS011;48954;59.950;11.014;2023-05-15T08:23:15;11.50;;;8.20;;
62863;SDS011;48954;59.950;11.014;2023-05-15T08:25:42;9.20;;;7.80;;
62863;SDS011;48954;59.950;11.014;2023-05-15T08:28:08;9.60;;;8.60;;
62863;SDS011;48954;59.950;11.014;2023-05-15T08:30:35;9.20;;;8.10;;
62863;SDS011;48954;59.950;11.014;2023-05-15T08:33:01;9.80;;;8.70;;
62863;SDS011;48954;59.950;11.014;2023-05-15T08:35:28;8.70;;;7.80;;
62863;SDS011;48954;59.950;11.014;2023-05-15T08:37:57;7.70;;;7.00;;
62863;SDS011;48954;59.950;11.014;2023-05-15T08:40:24;9.30;;;7.80;;
62863;SDS011;48954;59.950;11.014;2023-05-15T08:42:52;7.90;;;6.90;;
62863;SDS011;48954;59.950;11.014;2023-05-15T08:45:20;12.20;;;9.10;;
62863;SDS011;48954;59.950;11.014;2023-05-15T08:47:50;9.60;;;7.50;;
62863;SDS011;48954;59.950;11.014;2023-05-15T08:50:17;8.70;;;7.30;;
62863;SDS011;48954;59.950;11.014;2023-05-15T08:52:46;9.00;;;7.90;;
62863;SDS011;48954;59.950;11.014;2023-05-15T08:55:13;8.50;;;7.70;;
62863;SDS011;48954;59.950;11.014;2023-05-15T08:57:41;8.40;;;7.60;;
62863;SDS011;48954;59.950;11.014;2023-05-15T09:00:08;8.90;;;8.00;;
62863;SDS011;48954;59.950;11.014;2023-05-15T09:02:35;9.90;;;8.30;;
62863;SDS011;48954;59.950;11.014;2023-05-15T09:05:02;10.10;;;8.50;;
62863;SDS011;48954;59.950;11.014;2023-05-15T09:07:30;10.50;;;8.10;;
62863;SDS011;48954;59.950;11.014;2023-05-15T09:09:58;7.70;;;6.90;;
62863;SDS011;48954;59.950;11.014;2023-05-15T09:12:26;9.50;;;8.50;;
62863;SDS011;48954;59.950;11.014;2023-05-15T09:15:06;8.10;;;7.30;;
62863;SDS011;48954;59.950;11.014;2023-05-15T09:20:33;7.80;;;7.00;;
62863;SDS011;48954;59.950;11.014;2023-05-15T09:23:02;9.60;;;7.50;;
62863;SDS011;48954;59.950;11.014;2023-05-15T09:25:40;7.70;;;7.00;;
62863;SDS011;48954;59.950;11.014;2023-05-15T09:28:08;7.80;;;7.10;;
62863;SDS011;48954;59.950;11.014;2023-05-15T09:30:37;8.60;;;7.10;;
62863;SDS011;48954;59.950;11.014;2023-05-15T09:33:04;8.10;;;6.70;;
62863;SDS011;48954;59.950;11.014;2023-05-15T09:35:34;7.40;;;6.00;;
62863;SDS011;48954;59.950;11.014;2023-05-15T09:38:03;5.60;;;5.10;;
62863;SDS011;48954;59.950;11.014;2023-05-15T09:40:33;5.10;;;4.60;;
62863;SDS011;48954;59.950;11.014;2023-05-15T09:43:00;4.90;;;4.40;;
62863;SDS011;48954;59.950;11.014;2023-05-15T09:45:27;5.20;;;4.60;;
62863;SDS011;48954;59.950;11.014;2023-05-15T09:47:54;5.00;;;4.40;;
62863;SDS011;48954;59.950;11.014;2023-05-15T09:50:23;6.70;;;4.60;;
62863;SDS011;48954;59.950;11.014;2023-05-15T09:52:50;6.70;;;4.80;;
62863;SDS011;48954;59.950;11.014;2023-05-15T09:55:21;6.80;;;4.60;;
62863;SDS011;48954;59.950;11.014;2023-05-15T10:00:38;6.20;;;4.90;;
62863;SDS011;48954;59.950;11.014;2023-05-15T10:03:06;6.70;;;5.10;;
62863;SDS011;48954;59.950;11.014;2023-05-15T10:05:34;5.10;;;4.30;;
62863;SDS011;48954;59.950;11.014;2023-05-15T10:08:01;7.00;;;5.10;;
62863;SDS011;48954;59.950;11.014;2023-05-15T10:10:28;5.80;;;5.30;;
62863;SDS011;48954;59.950;11.014;2023-05-15T10:12:56;8.40;;;5.30;;
62863;SDS011;48954;59.950;11.014;2023-05-15T10:15:24;5.80;;;5.00;;
62863;SDS011;48954;59.950;11.014;2023-05-15T10:17:51;6.10;;;4.80;;
62863;SDS011;48954;59.950;11.014;2023-05-15T10:20:19;5.70;;;4.70;;
62863;SDS011;48954;59.950;11.014;2023-05-15T10:22:49;6.00;;;5.30;;
62863;SDS011;48954;59.950;11.014;2023-05-15T10:28:05;5.00;;;4.40;;
62863;SDS011;48954;59.950;11.014;2023-05-15T10:30:39;5.60;;;4.90;;
62863;SDS011;48954;59.950;11.014;2023-05-15T10:33:08;6.20;;;4.80;;
62863;SDS011;48954;59.950;11.014;2023-05-15T10:35:37;5.60;;;4.70;;
62863;SDS011;48954;59.950;11.014;2023-05-15T10:38:05;9.00;;;5.60;;
62863;SDS011;48954;59.950;11.014;2023-05-15T10:40:35;6.80;;;5.50;;
62863;SDS011;48954;59.950;11.014;2023-05-15T10:43:05;6.20;;;5.40;;
62863;SDS011;48954;59.950;11.014;2023-05-15T10:45:34;7.40;;;5.30;;
62863;SDS011;48954;59.950;11.014;2023-05-15T10:48:01;5.90;;;5.30;;
62863;SDS011;48954;59.950;11.014;2023-05-15T10:50:30;7.30;;;5.60;;
62863;SDS011;48954;59.950;11.014;2023-05-15T10:52:56;6.90;;;6.20;;
62863;SDS011;48954;59.950;11.014;2023-05-15T10:55:23;8.20;;;5.90;;
62863;SDS011;48954;59.950;11.014;2023-05-15T10:57:49;7.30;;;6.10;;
62863;SDS011;48954;59.950;11.014;2023-05-15T11:02:49;6.90;;;6.30;;
62863;SDS011;48954;59.950;11.014;2023-05-15T11:05:16;8.90;;;6.10;;
62863;SDS011;48954;59.950;11.014;2023-05-15T11:07:43;8.50;;;6.00;;
62863;SDS011;48954;59.950;11.014;2023-05-15T11:10:34;7.50;;;6.00;;
62863;SDS011;48954;59.950;11.014;2023-05-15T11:13:01;6.70;;;6.00;;
62863;SDS011;48954;59.950;11.014;2023-05-15T11:15:40;6.70;;;5.90;;
62863;SDS011;48954;59.950;11.014;2023-05-15T11:18:08;5.70;;;5.10;;
62863;SDS011;48954;59.950;11.014;2023-05-15T11:20:39;7.70;;;5.90;;
62863;SDS011;48954;59.950;11.014;2023-05-15T11:23:06;7.50;;;6.20;;
62863;SDS011;48954;59.950;11.014;2023-05-15T11:25:35;8.70;;;6.00;;
62863;SDS011;48954;59.950;11.014;2023-05-15T11:28:02;8.00;;;6.30;;
62863;SDS011;48954;59.950;11.014;2023-05-15T11:30:36;7.10;;;6.00;;
62863;SDS011;48954;59.950;11.014;2023-05-15T11:35:38;8.90;;;5.50;;
62863;SDS011;48954;59.950;11.014;2023-05-15T11:45:56;6.20;;;5.60;;
62863;SDS011;48954;59.950;11.014;2023-05-15T11:48:32;8.00;;;6.30;;
62863;SDS011;48954;59.950;11.014;2023-05-15T11:51:00;7.80;;;6.00;;
62863;SDS011;48954;59.950;11.014;2023-05-15T11:53:28;7.60;;;6.80;;
62863;SDS011;48954;59.950;11.014;2023-05-15T11:55:55;10.30;;;8.00;;
62863;SDS011;48954;59.950;11.014;2023-05-15T11:58:22;8.20;;;6.90;;
62863;SDS011;48954;59.950;11.014;2023-05-15T12:00:51;10.80;;;7.00;;
62863;SDS011;48954;59.950;11.014;2023-05-15T12:03:25;7.70;;;6.70;;
62863;SDS011;48954;59.950;11.014;2023-05-15T12:05:57;7.70;;;6.80;;
62863;SDS011;48954;59.950;11.014;2023-05-15T12:08:23;9.80;;;6.70;;
62863;SDS011;48954;59.950;11.014;2023-05-15T12:10:50;7.80;;;6.60;;
62863;SDS011;48954;59.950;11.014;2023-05-15T12:13:17;8.50;;;7.10;;
62863;SDS011;48954;59.950;11.014;2023-05-15T12:15:44;7.70;;;6.70;;
62863;SDS011;48954;59.950;11.014;2023-05-15T12:18:12;9.50;;;7.70;;
62863;SDS011;48954;59.950;11.014;2023-05-15T12:20:39;8.40;;;6.80;;
62863;SDS011;48954;59.950;11.014;2023-05-15T12:23:06;10.50;;;7.30;;
62863;SDS011;48954;59.950;11.014;2023-05-15T12:25:34;9.30;;;7.10;;
62863;SDS011;48954;59.950;11.014;2023-05-15T12:28:02;8.10;;;7.30;;
62863;SDS011;48954;59.950;11.014;2023-05-15T12:30:30;10.10;;;7.50;;
62863;SDS011;48954;59.950;11.014;2023-05-15T12:33:07;10.20;;;8.10;;
62863;SDS011;48954;59.950;11.014;2023-05-15T12:35:35;10.20;;;7.60;;
62863;SDS011;48954;59.950;11.014;2023-05-15T12:38:07;9.70;;;8.70;;
62863;SDS011;48954;59.950;11.014;2023-05-15T12:40:34;11.60;;;8.40;;
62863;SDS011;48954;59.950;11.014;2023-05-15T12:43:05;8.30;;;7.60;;
62863;SDS011;48954;59.950;11.014;2023-05-15T12:45:32;9.90;;;7.70;;
62863;SDS011;48954;59.950;11.014;2023-05-15T12:47:59;8.80;;;7.50;;
62863;SDS011;48954;59.950;11.014;2023-05-15T12:50:26;11.80;;;7.70;;
62863;SDS011;48954;59.950;11.014;2023-05-15T12:55:40;10.00;;;7.90;;
62863;SDS011;48954;59.950;11.014;2023-05-15T12:58:08;11.10;;;8.50;;
62863;SDS011;48954;59.950;11.014;2023-05-15T13:00:36;8.50;;;7.60;;
62863;SDS011;48954;59.950;11.014;2023-05-15T13:03:08;9.10;;;8.20;;
62863;SDS011;48954;59.950;11.014;2023-05-15T13:05:36;8.30;;;7.50;;
62863;SDS011;48954;59.950;11.014;2023-05-15T13:08:08;9.00;;;7.10;;
62863;SDS011;48954;59.950;11.014;2023-05-15T13:10:41;10.40;;;7.70;;
62863;SDS011;48954;59.950;11.014;2023-05-15T13:13:12;9.60;;;7.80;;
62863;SDS011;48954;59.950;11.014;2023-05-15T13:15:41;13.50;;;8.00;;
62863;SDS011;48954;59.950;11.014;2023-05-15T13:18:10;9.20;;;7.80;;
62863;SDS011;48954;59.950;11.014;2023-05-15T13:20:45;9.00;;;6.90;;
62863;SDS011;48954;59.950;11.014;2023-05-15T13:23:16;8.60;;;7.30;;
62863;SDS011;48954;59.950;11.014;2023-05-15T13:25:44;8.10;;;7.30;;
62863;SDS011;48954;59.950;11.014;2023-05-15T13:28:11;8.10;;;7.30;;
62863;SDS011;48954;59.950;11.014;2023-05-15T13:30:38;8.60;;;7.30;;
62863;SDS011;48954;59.950;11.014;2023-05-15T13:33:06;8.80;;;7.60;;
62863;SDS011;48954;59.950;11.014;2023-05-15T13:38:25;9.90;;;7.70;;
62863;SDS011;48954;59.950;11.014;2023-05-15T13:40:52;8.90;;;6.60;;
62863;SDS011;48954;59.950;11.014;2023-05-15T13:43:19;8.50;;;7.30;;
62863;SDS011;48954;59.950;11.014;2023-05-15T13:45:46;7.10;;;6.40;;
62863;SDS011;48954;59.950;11.014;2023-05-15T13:48:14;7.10;;;6.40;;
62863;SDS011;48954;59.950;11.014;2023-05-15T13:50:41;7.70;;;6.90;;
62863;SDS011;48954;59.950;11.014;2023-05-15T13:53:08;7.40;;;6.60;;
62863;SDS011;48954;59.950;11.014;2023-05-15T13:55:36;7.50;;;6.80;;
62863;SDS011;48954;59.950;11.014;2023-05-15T13:58:03;9.10;;;6.90;;
62863;SDS011;48954;59.950;11.014;2023-05-15T14:00:30;12.30;;;6.70;;
62863;SDS011;48954;59.950;11.014;2023-05-15T14:02:57;6.90;;;6.00;;
62863;SDS011;48954;59.950;11.014;2023-05-15T14:05:31;8.60;;;6.70;;
62863;SDS011;48954;59.950;11.014;2023-05-15T14:08:14;7.60;;;6.00;;
62863;SDS011;48954;59.950;11.014;2023-05-15T14:10:43;8.30;;;7.10;;
62863;SDS011;48954;59.950;11.014;2023-05-15T14:13:09;7.70;;;5.80;;
62863;SDS011;48954;59.950;11.014;2023-05-15T14:15:38;6.00;;;5.30;;
62863;SDS011;48954;59.950;11.014;2023-05-15T14:18:05;5.60;;;4.90;;
62863;SDS011;48954;59.950;11.014;2023-05-15T14:20:33;5.10;;;4.60;;
62863;SDS011;48954;59.950;11.014;2023-05-15T14:23:02;4.60;;;4.10;;
62863;SDS011;48954;59.950;11.014;2023-05-15T14:25:33;4.80;;;4.40;;
62863;SDS011;48954;59.950;11.014;2023-05-15T14:27:59;6.80;;;4.70;;
62863;SDS011;48954;59.950;11.014;2023-05-15T14:30:26;5.40;;;4.50;;
62863;SDS011;48954;59.950;11.014;2023-05-15T14:32:54;5.10;;;3.80;;
62863;SDS011;48954;59.950;11.014;2023-05-15T14:35:22;5.50;;;4.40;;
62863;SDS011;48954;59.950;11.014;2023-05-15T14:37:48;4.50;;;4.10;;
62863;SDS011;48954;59.950;11.014;2023-05-15T14:40:15;4.40;;;3.80;;
62863;SDS011;48954;59.950;11.014;2023-05-15T14:42:47;5.60;;;4.00;;
62863;SDS011;48954;59.950;11.014;2023-05-15T14:45:16;4.80;;;3.70;;
62863;SDS011;48954;59.950;11.014;2023-05-15T14:47:56;7.10;;;3.80;;
62863;SDS011;48954;59.950;11.014;2023-05-15T14:50:23;3.60;;;3.10;;
62863;SDS011;48954;59.950;11.014;2023-05-15T14:52:56;4.40;;;4.00;;
62863;SDS011;48954;59.950;11.014;2023-05-15T14:55:37;4.40;;;3.90;;
62863;SDS011;48954;59.950;11.014;2023-05-15T14:58:10;5.00;;;3.90;;
62863;SDS011;48954;59.950;11.014;2023-05-15T15:00:57;4.50;;;4.00;;
62863;SDS011;48954;59.950;11.014;2023-05-15T15:03:54;5.00;;;4.00;;
62863;SDS011;48954;59.950;11.014;2023-05-15T15:06:28;3.70;;;3.00;;
62863;SDS011;48954;59.950;11.014;2023-05-15T15:08:55;5.00;;;4.40;;
62863;SDS011;48954;59.950;11.014;2023-05-15T15:11:22;7.60;;;4.60;;
62863;SDS011;48954;59.950;11.014;2023-05-15T15:13:50;5.00;;;4.40;;
62863;SDS011;48954;59.950;11.014;2023-05-15T15:16:17;5.70;;;4.60;;
62863;SDS011;48954;59.950;11.014;2023-05-15T15:18:44;6.10;;;5.10;;
62863;SDS011;48954;59.950;11.014;2023-05-15T15:21:11;6.30;;;4.70;;